sensor_id;sensor_type;location;lat;lon;timestamp;P1;durP1;ratioP1;P2;durP2;ratioP2
58366;SDS011;57745;42.524;12.052;2023-12-04T00:00:24;5.97;;;2.33;;
58366;SDS011;57745;42.524;12.052;2023-12-04T00:02:50;6.13;;;2.40;;
58366;SDS011;57745;42.524;12.052;2023-12-04T00:05:15;4.45;;;2.30;;
58366;SDS011;57745;42.524;12.052;2023-12-04T00:07:41;4.15;;;2.03;;
58366;SDS011;57745;42.524;12.052;2023-12-04T00:10:06;5.13;;;2.17;;
58366;SDS011;57745;42.524;12.052;2023-12-04T00:12:33;2.65;;;1.77;;
58366;SDS011;57745;42.524;12.052;2023-12-04T00:14:58;4.28;;;2.00;;
58366;SDS011;57745;42.524;12.052;2023-12-04T00:17:24;6.25;;;1.88;;
58366;SDS011;57745;42.524;12.052;2023-12-04T00:19:50;4.72;;;1.80;;
58366;SDS011;57745;42.524;12.052;2023-12-04T00:22:15;3.58;;;1.70;;
58366;SDS011;57745;42.524;12.052;2023-12-04T00:24:41;3.85;;;1.80;;
58366;SDS011;57745;42.524;12.052;2023-12-04T00:27:06;2.78;;;1.70;;
58366;SDS011;57745;42.524;12.052;2023-12-04T00:29:32;2.88;;;1.80;;
58366;SDS011;57745;42.524;12.052;2023-12-04T00:31:57;3.70;;;2.28;;
58366;SDS011;57745;42.524;12.052;2023-12-04T00:34:23;4.05;;;2.08;;
58366;SDS011;57745;42.524;12.052;2023-12-04T00:36:48;6.03;;;2.35;;
58366;SDS011;57745;42.524;12.052;2023-12-04T00:39:13;6.90;;;2.75;;
58366;SDS011;57745;42.524;12.052;2023-12-04T00:41:39;5.93;;;2.72;;
58366;SDS011;57745;42.524;12.052;2023-12-04T00:44:04;3.95;;;2.22;;
58366;SDS011;57745;42.524;12.052;2023-12-04T00:46:30;5.32;;;2.50;;
58366;SDS011;57745;42.524;12.052;2023-12-04T00:48:55;6.72;;;2.92;;
58366;SDS011;57745;42.524;12.052;2023-12-04T00:51:21;4.20;;;2.00;;
58366;SDS011;57745;42.524;12.052;2023-12-04T00:53:46;2.65;;;1.73;;
58366;SDS011;57745;42.524;12.052;2023-12-04T00:56:11;3.33;;;1.85;;
58366;SDS011;57745;42.524;12.052;2023-12-04T00:58:37;3.25;;;1.40;;
58366;SDS011;57745;42.524;12.052;2023-12-04T01:01:02;3.30;;;1.70;;
58366;SDS011;57745;42.524;12.052;2023-12-04T01:03:28;2.65;;;1.70;;
58366;SDS011;57745;42.524;12.052;2023-12-04T01:05:57;4.97;;;1.88;;
58366;SDS011;57745;42.524;12.052;2023-12-04T01:08:23;3.97;;;2.00;;
58366;SDS011;57745;42.524;12.052;2023-12-04T01:10:48;3.88;;;1.70;;
58366;SDS011;57745;42.524;12.052;2023-12-04T01:13:14;3.75;;;1.60;;
58366;SDS011;57745;42.524;12.052;2023-12-04T01:15:39;2.85;;;1.52;;
58366;SDS011;57745;42.524;12.052;2023-12-04T01:18:05;2.47;;;1.50;;
58366;SDS011;57745;42.524;12.052;2023-12-04T01:20:30;4.90;;;1.48;;
58366;SDS011;57745;42.524;12.052;2023-12-04T01:22:58;4.63;;;1.67;;
58366;SDS011;57745;42.524;12.052;2023-12-04T01:25:23;4.20;;;1.67;;
58366;SDS011;57745;42.524;12.052;2023-12-04T01:27:49;2.95;;;1.45;;
58366;SDS011;57745;42.524;12.052;2023-12-04T01:30:14;5.63;;;1.77;;
58366;SDS011;57745;42.524;12.052;2023-12-04T01:32:40;5.25;;;1.83;;
58366;SDS011;57745;42.524;12.052;2023-12-04T01:35:05;2.63;;;1.10;;
58366;SDS011;57745;42.524;12.052;2023-12-04T01:37:31;3.33;;;1.30;;
58366;SDS011;57745;42.524;12.052;2023-12-04T01:39:57;3.13;;;1.50;;
58366;SDS011;57745;42.524;12.052;2023-12-04T01:42:22;4.78;;;1.80;;
58366;SDS011;57745;42.524;12.052;2023-12-04T01:44:48;2.50;;;1.30;;
58366;SDS011;57745;42.524;12.052;2023-12-04T01:47:13;3.58;;;1.35;;
58366;SDS011;57745;42.524;12.052;2023-12-04T01:49:39;3.10;;;1.48;;
58366;SDS011;57745;42.524;12.052;2023-12-04T01:52:05;2.38;;;1.77;;
58366;SDS011;57745;42.524;12.052;2023-12-04T01:54:31;3.47;;;1.90;;
58366;SDS011;57745;42.524;12.052;2023-12-04T01:56:57;2.10;;;1.35;;
58366;SDS011;57745;42.524;12.052;2023-12-04T01:59:23;2.72;;;1.35;;
58366;SDS011;57745;42.524;12.052;2023-12-04T02:01:51;3.25;;;1.30;;
58366;SDS011;57745;42.524;12.052;2023-12-04T02:04:17;3.17;;;1.30;;
58366;SDS011;57745;42.524;12.052;2023-12-04T02:06:43;2.70;;;1.23;;
58366;SDS011;57745;42.524;12.052;2023-12-04T02:09:09;3.83;;;1.27;;
58366;SDS011;57745;42.524;12.052;2023-12-04T02:11:37;3.88;;;1.60;;
58366;SDS011;57745;42.524;12.052;2023-12-04T02:14:04;3.80;;;1.33;;
58366;SDS011;57745;42.524;12.052;2023-12-04T02:16:30;1.88;;;1.33;;
58366;SDS011;57745;42.524;12.052;2023-12-04T02:19:01;2.80;;;1.25;;
58366;SDS011;57745;42.524;12.052;2023-12-04T02:21:27;2.88;;;1.35;;
58366;SDS011;57745;42.524;12.052;2023-12-04T02:23:52;2.42;;;1.30;;
58366;SDS011;57745;42.524;12.052;2023-12-04T02:26:18;3.50;;;1.50;;
58366;SDS011;57745;42.524;12.052;2023-12-04T02:28:50;2.38;;;1.20;;
58366;SDS011;57745;42.524;12.052;2023-12-04T02:31:20;2.80;;;1.45;;
58366;SDS011;57745;42.524;12.052;2023-12-04T02:33:48;2.60;;;1.33;;
58366;SDS011;57745;42.524;12.052;2023-12-04T02:36:17;3.35;;;1.60;;
58366;SDS011;57745;42.524;12.052;2023-12-04T02:38:45;1.60;;;1.20;;
58366;SDS011;57745;42.524;12.052;2023-12-04T02:41:10;2.72;;;1.30;;
58366;SDS011;57745;42.524;12.052;2023-12-04T02:43:36;4.50;;;1.23;;
58366;SDS011;57745;42.524;12.052;2023-12-04T02:46:01;2.17;;;1.20;;
58366;SDS011;57745;42.524;12.052;2023-12-04T02:48:27;2.55;;;1.27;;
58366;SDS011;57745;42.524;12.052;2023-12-04T02:50:52;2.67;;;1.48;;
58366;SDS011;57745;42.524;12.052;2023-12-04T02:53:18;4.57;;;1.60;;
58366;SDS011;57745;42.524;12.052;2023-12-04T02:55:43;3.42;;;1.30;;
58366;SDS011;57745;42.524;12.052;2023-12-04T02:58:09;6.55;;;1.50;;
58366;SDS011;57745;42.524;12.052;2023-12-04T03:00:34;3.35;;;1.30;;
58366;SDS011;57745;42.524;12.052;2023-12-04T03:03:00;3.25;;;1.40;;
58366;SDS011;57745;42.524;12.052;2023-12-04T03:05:25;3.30;;;1.25;;
58366;SDS011;57745;42.524;12.052;2023-12-04T03:07:51;1.85;;;1.27;;
58366;SDS011;57745;42.524;12.052;2023-12-04T03:10:16;1.70;;;1.30;;
58366;SDS011;57745;42.524;12.052;2023-12-04T03:12:42;1.92;;;1.00;;
58366;SDS011;57745;42.524;12.052;2023-12-04T03:15:07;4.47;;;1.23;;
58366;SDS011;57745;42.524;12.052;2023-12-04T03:17:33;3.05;;;1.40;;
58366;SDS011;57745;42.524;12.052;2023-12-04T03:19:58;2.95;;;1.20;;
58366;SDS011;57745;42.524;12.052;2023-12-04T03:22:24;1.80;;;1.08;;
58366;SDS011;57745;42.524;12.052;2023-12-04T03:24:49;2.33;;;1.33;;
58366;SDS011;57745;42.524;12.052;2023-12-04T03:27:14;2.35;;;1.30;;
58366;SDS011;57745;42.524;12.052;2023-12-04T03:29:40;1.92;;;1.00;;
58366;SDS011;57745;42.524;12.052;2023-12-04T03:32:05;3.92;;;1.30;;
58366;SDS011;57745;42.524;12.052;2023-12-04T03:34:31;4.15;;;1.30;;
58366;SDS011;57745;42.524;12.052;2023-12-04T03:36:56;2.65;;;1.30;;
58366;SDS011;57745;42.524;12.052;2023-12-04T03:39:22;2.65;;;1.27;;
58366;SDS011;57745;42.524;12.052;2023-12-04T03:41:47;3.55;;;1.45;;
58366;SDS011;57745;42.524;12.052;2023-12-04T03:44:13;2.03;;;1.20;;
58366;SDS011;57745;42.524;12.052;2023-12-04T03:46:38;2.33;;;1.20;;
58366;SDS011;57745;42.524;12.052;2023-12-04T03:49:04;5.97;;;2.20;;
58366;SDS011;57745;42.524;12.052;2023-12-04T03:51:30;3.08;;;1.20;;
58366;SDS011;57745;42.524;12.052;2023-12-04T03:53:55;3.53;;;1.38;;
58366;SDS011;57745;42.524;12.052;2023-12-04T03:56:21;4.13;;;1.77;;
58366;SDS011;57745;42.524;12.052;2023-12-04T03:58:46;2.20;;;1.20;;
58366;SDS011;57745;42.524;12.052;2023-12-04T04:01:12;4.90;;;1.85;;
58366;SDS011;57745;42.524;12.052;2023-12-04T04:03:37;3.83;;;1.17;;
58366;SDS011;57745;42.524;12.052;2023-12-04T04:06:03;3.20;;;1.55;;
58366;SDS011;57745;42.524;12.052;2023-12-04T04:08:29;4.22;;;1.50;;
58366;SDS011;57745;42.524;12.052;2023-12-04T04:10:54;6.50;;;1.67;;
58366;SDS011;57745;42.524;12.052;2023-12-04T04:13:20;2.00;;;1.30;;
58366;SDS011;57745;42.524;12.052;2023-12-04T04:15:45;3.63;;;1.63;;
58366;SDS011;57745;42.524;12.052;2023-12-04T04:18:11;3.08;;;1.40;;
58366;SDS011;57745;42.524;12.052;2023-12-04T04:20:36;2.90;;;1.33;;
58366;SDS011;57745;42.524;12.052;2023-12-04T04:23:02;2.30;;;1.20;;
58366;SDS011;57745;42.524;12.052;2023-12-04T04:25:27;2.63;;;1.30;;
58366;SDS011;57745;42.524;12.052;2023-12-04T04:27:53;2.63;;;1.10;;
58366;SDS011;57745;42.524;12.052;2023-12-04T04:30:18;4.03;;;1.40;;
58366;SDS011;57745;42.524;12.052;2023-12-04T04:32:44;3.45;;;1.30;;
58366;SDS011;57745;42.524;12.052;2023-12-04T04:35:09;5.38;;;1.50;;
58366;SDS011;57745;42.524;12.052;2023-12-04T04:37:35;4.43;;;1.40;;
58366;SDS011;57745;42.524;12.052;2023-12-04T04:40:00;2.95;;;1.58;;
58366;SDS011;57745;42.524;12.052;2023-12-04T04:42:26;3.33;;;1.73;;
58366;SDS011;57745;42.524;12.052;2023-12-04T04:44:51;2.97;;;1.75;;
58366;SDS011;57745;42.524;12.052;2023-12-04T04:47:17;3.30;;;1.40;;
58366;SDS011;57745;42.524;12.052;2023-12-04T04:49:42;2.58;;;1.30;;
58366;SDS011;57745;42.524;12.052;2023-12-04T04:52:07;3.00;;;1.10;;
58366;SDS011;57745;42.524;12.052;2023-12-04T04:54:33;3.38;;;1.30;;
58366;SDS011;57745;42.524;12.052;2023-12-04T04:56:58;2.88;;;1.48;;
58366;SDS011;57745;42.524;12.052;2023-12-04T04:59:24;4.22;;;1.90;;
58366;SDS011;57745;42.524;12.052;2023-12-04T05:01:49;4.50;;;1.60;;
58366;SDS011;57745;42.524;12.052;2023-12-04T05:04:15;2.95;;;1.23;;
58366;SDS011;57745;42.524;12.052;2023-12-04T05:06:40;2.92;;;1.40;;
58366;SDS011;57745;42.524;12.052;2023-12-04T05:09:06;3.90;;;1.38;;
58366;SDS011;57745;42.524;12.052;2023-12-04T05:11:31;3.67;;;1.45;;
58366;SDS011;57745;42.524;12.052;2023-12-04T05:13:57;3.22;;;1.60;;
58366;SDS011;57745;42.524;12.052;2023-12-04T05:16:22;4.43;;;1.50;;
58366;SDS011;57745;42.524;12.052;2023-12-04T05:18:49;4.75;;;1.50;;
58366;SDS011;57745;42.524;12.052;2023-12-04T05:21:14;2.95;;;1.50;;
58366;SDS011;57745;42.524;12.052;2023-12-04T05:23:39;4.75;;;1.50;;
58366;SDS011;57745;42.524;12.052;2023-12-04T05:26:05;5.53;;;1.35;;
58366;SDS011;57745;42.524;12.052;2023-12-04T05:28:31;3.65;;;1.27;;
58366;SDS011;57745;42.524;12.052;2023-12-04T05:30:57;2.50;;;1.50;;
58366;SDS011;57745;42.524;12.052;2023-12-04T05:33:23;4.70;;;1.70;;
58366;SDS011;57745;42.524;12.052;2023-12-04T05:35:48;1.95;;;1.30;;
58366;SDS011;57745;42.524;12.052;2023-12-04T05:38:16;3.47;;;1.20;;
58366;SDS011;57745;42.524;12.052;2023-12-04T05:40:41;3.30;;;1.10;;
58366;SDS011;57745;42.524;12.052;2023-12-04T05:43:07;6.43;;;1.40;;
58366;SDS011;57745;42.524;12.052;2023-12-04T05:45:32;3.38;;;1.30;;
58366;SDS011;57745;42.524;12.052;2023-12-04T05:47:58;2.35;;;1.20;;
58366;SDS011;57745;42.524;12.052;2023-12-04T05:50:23;3.50;;;1.55;;
58366;SDS011;57745;42.524;12.052;2023-12-04T05:52:49;4.88;;;1.60;;
58366;SDS011;57745;42.524;12.052;2023-12-04T05:55:15;3.63;;;1.33;;
58366;SDS011;57745;42.524;12.052;2023-12-04T05:57:40;3.58;;;1.50;;
58366;SDS011;57745;42.524;12.052;2023-12-04T06:00:06;2.25;;;1.40;;
58366;SDS011;57745;42.524;12.052;2023-12-04T06:02:38;2.67;;;1.50;;
58366;SDS011;57745;42.524;12.052;2023-12-04T06:05:07;3.92;;;1.65;;
58366;SDS011;57745;42.524;12.052;2023-12-04T06:07:33;4.25;;;2.30;;
58366;SDS011;57745;42.524;12.052;2023-12-04T06:09:58;8.57;;;2.30;;
58366;SDS011;57745;42.524;12.052;2023-12-04T06:12:24;11.27;;;3.00;;
58366;SDS011;57745;42.524;12.052;2023-12-04T06:14:49;9.27;;;2.78;;
58366;SDS011;57745;42.524;12.052;2023-12-04T06:17:16;6.93;;;2.15;;
58366;SDS011;57745;42.524;12.052;2023-12-04T06:19:41;9.60;;;2.63;;
58366;SDS011;57745;42.524;12.052;2023-12-04T06:22:07;7.00;;;2.40;;
58366;SDS011;57745;42.524;12.052;2023-12-04T06:24:32;5.18;;;2.40;;
58366;SDS011;57745;42.524;12.052;2023-12-04T06:26:58;5.63;;;2.25;;
58366;SDS011;57745;42.524;12.052;2023-12-04T06:29:24;5.15;;;2.70;;
58366;SDS011;57745;42.524;12.052;2023-12-04T06:31:50;8.07;;;3.67;;
58366;SDS011;57745;42.524;12.052;2023-12-04T06:34:15;5.18;;;2.72;;
58366;SDS011;57745;42.524;12.052;2023-12-04T06:36:41;11.55;;;2.90;;
58366;SDS011;57745;42.524;12.052;2023-12-04T06:39:09;8.00;;;2.90;;
58366;SDS011;57745;42.524;12.052;2023-12-04T06:41:39;6.55;;;2.80;;
58366;SDS011;57745;42.524;12.052;2023-12-04T06:44:05;6.43;;;3.20;;
58366;SDS011;57745;42.524;12.052;2023-12-04T06:46:32;5.82;;;2.47;;
58366;SDS011;57745;42.524;12.052;2023-12-04T06:49:01;5.20;;;2.60;;
58366;SDS011;57745;42.524;12.052;2023-12-04T06:51:30;7.90;;;2.75;;
58366;SDS011;57745;42.524;12.052;2023-12-04T06:53:55;4.93;;;2.20;;
58366;SDS011;57745;42.524;12.052;2023-12-04T06:56:21;5.03;;;2.15;;
58366;SDS011;57745;42.524;12.052;2023-12-04T06:58:46;8.65;;;2.45;;
58366;SDS011;57745;42.524;12.052;2023-12-04T07:01:12;6.85;;;2.47;;
58366;SDS011;57745;42.524;12.052;2023-12-04T07:03:37;6.55;;;2.88;;
58366;SDS011;57745;42.524;12.052;2023-12-04T07:06:03;6.68;;;2.83;;
58366;SDS011;57745;42.524;12.052;2023-12-04T07:08:29;6.20;;;2.83;;
58366;SDS011;57745;42.524;12.052;2023-12-04T07:10:54;5.20;;;3.05;;
58366;SDS011;57745;42.524;12.052;2023-12-04T07:13:20;7.38;;;2.58;;
58366;SDS011;57745;42.524;12.052;2023-12-04T07:15:45;5.35;;;2.50;;
58366;SDS011;57745;42.524;12.052;2023-12-04T07:18:11;6.78;;;3.60;;
58366;SDS011;57745;42.524;12.052;2023-12-04T07:20:36;5.22;;;2.83;;
58366;SDS011;57745;42.524;12.052;2023-12-04T07:23:01;5.47;;;3.03;;
58366;SDS011;57745;42.524;12.052;2023-12-04T07:25:27;6.97;;;2.90;;
58366;SDS011;57745;42.524;12.052;2023-12-04T07:27:52;5.70;;;2.83;;
58366;SDS011;57745;42.524;12.052;2023-12-04T07:30:18;4.60;;;2.28;;
58366;SDS011;57745;42.524;12.052;2023-12-04T07:32:43;6.40;;;2.97;;
58366;SDS011;57745;42.524;12.052;2023-12-04T07:35:09;5.55;;;2.45;;
58366;SDS011;57745;42.524;12.052;2023-12-04T07:37:34;7.60;;;2.70;;
58366;SDS011;57745;42.524;12.052;2023-12-04T07:40:00;3.83;;;2.30;;
58366;SDS011;57745;42.524;12.052;2023-12-04T07:42:26;6.18;;;2.58;;
58366;SDS011;57745;42.524;12.052;2023-12-04T07:44:51;4.18;;;2.45;;
58366;SDS011;57745;42.524;12.052;2023-12-04T07:47:17;3.88;;;2.13;;
58366;SDS011;57745;42.524;12.052;2023-12-04T07:49:44;4.03;;;2.10;;
58366;SDS011;57745;42.524;12.052;2023-12-04T07:52:10;2.25;;;1.67;;
58366;SDS011;57745;42.524;12.052;2023-12-04T07:54:36;4.45;;;1.95;;
58366;SDS011;57745;42.524;12.052;2023-12-04T07:57:02;4.25;;;2.40;;
58366;SDS011;57745;42.524;12.052;2023-12-04T07:59:28;5.00;;;2.80;;
58366;SDS011;57745;42.524;12.052;2023-12-04T08:01:54;6.20;;;2.35;;
58366;SDS011;57745;42.524;12.052;2023-12-04T08:04:19;4.32;;;2.25;;
58366;SDS011;57745;42.524;12.052;2023-12-04T08:06:44;5.47;;;2.67;;
58366;SDS011;57745;42.524;12.052;2023-12-04T08:09:10;4.63;;;3.15;;
58366;SDS011;57745;42.524;12.052;2023-12-04T08:11:36;4.85;;;2.35;;
58366;SDS011;57745;42.524;12.052;2023-12-04T08:14:02;4.95;;;2.22;;
58366;SDS011;57745;42.524;12.052;2023-12-04T08:16:28;5.20;;;2.30;;
58366;SDS011;57745;42.524;12.052;2023-12-04T08:18:54;4.20;;;1.90;;
58366;SDS011;57745;42.524;12.052;2023-12-04T08:21:20;5.43;;;2.35;;
58366;SDS011;57745;42.524;12.052;2023-12-04T08:23:46;2.75;;;1.77;;
58366;SDS011;57745;42.524;12.052;2023-12-04T08:26:11;4.80;;;1.73;;
58366;SDS011;57745;42.524;12.052;2023-12-04T08:28:37;3.83;;;1.90;;
58366;SDS011;57745;42.524;12.052;2023-12-04T08:31:07;5.03;;;1.90;;
58366;SDS011;57745;42.524;12.052;2023-12-04T08:33:33;4.13;;;1.85;;
58366;SDS011;57745;42.524;12.052;2023-12-04T08:35:59;3.03;;;1.83;;
58366;SDS011;57745;42.524;12.052;2023-12-04T08:38:25;5.75;;;1.73;;
58366;SDS011;57745;42.524;12.052;2023-12-04T08:40:51;3.40;;;2.05;;
58366;SDS011;57745;42.524;12.052;2023-12-04T08:43:16;8.20;;;2.53;;
58366;SDS011;57745;42.524;12.052;2023-12-04T08:45:41;6.32;;;2.35;;
58366;SDS011;57745;42.524;12.052;2023-12-04T08:48:07;6.32;;;2.63;;
58366;SDS011;57745;42.524;12.052;2023-12-04T08:50:33;7.22;;;3.13;;
58366;SDS011;57745;42.524;12.052;2023-12-04T08:52:59;5.22;;;2.67;;
58366;SDS011;57745;42.524;12.052;2023-12-04T08:55:25;8.45;;;3.05;;
58366;SDS011;57745;42.524;12.052;2023-12-04T08:57:50;6.45;;;2.67;;
58366;SDS011;57745;42.524;12.052;2023-12-04T09:00:15;7.43;;;2.38;;
58366;SDS011;57745;42.524;12.052;2023-12-04T09:02:41;6.30;;;2.65;;
58366;SDS011;57745;42.524;12.052;2023-12-04T09:05:07;6.57;;;2.20;;
58366;SDS011;57745;42.524;12.052;2023-12-04T09:07:32;6.20;;;2.35;;
58366;SDS011;57745;42.524;12.052;2023-12-04T09:10:01;4.70;;;2.88;;
58366;SDS011;57745;42.524;12.052;2023-12-04T09:12:27;10.15;;;2.75;;
58366;SDS011;57745;42.524;12.052;2023-12-04T09:14:52;5.88;;;2.92;;
58366;SDS011;57745;42.524;12.052;2023-12-04T09:17:17;9.30;;;4.22;;
58366;SDS011;57745;42.524;12.052;2023-12-04T09:19:43;4.40;;;2.63;;
58366;SDS011;57745;42.524;12.052;2023-12-04T09:22:08;6.95;;;2.92;;
58366;SDS011;57745;42.524;12.052;2023-12-04T09:24:34;8.80;;;2.90;;
58366;SDS011;57745;42.524;12.052;2023-12-04T09:26:59;3.92;;;2.20;;
58366;SDS011;57745;42.524;12.052;2023-12-04T09:29:25;5.72;;;2.08;;
58366;SDS011;57745;42.524;12.052;2023-12-04T09:31:51;5.97;;;2.67;;
58366;SDS011;57745;42.524;12.052;2023-12-04T09:34:16;4.53;;;2.00;;
58366;SDS011;57745;42.524;12.052;2023-12-04T09:36:43;3.65;;;2.20;;
58366;SDS011;57745;42.524;12.052;2023-12-04T09:39:08;7.45;;;2.38;;
58366;SDS011;57745;42.524;12.052;2023-12-04T09:41:34;6.07;;;2.30;;
58366;SDS011;57745;42.524;12.052;2023-12-04T09:44:00;4.00;;;1.80;;
58366;SDS011;57745;42.524;12.052;2023-12-04T09:46:26;7.97;;;2.50;;
58366;SDS011;57745;42.524;12.052;2023-12-04T09:48:52;7.13;;;2.42;;
58366;SDS011;57745;42.524;12.052;2023-12-04T09:51:19;5.07;;;2.60;;
58366;SDS011;57745;42.524;12.052;2023-12-04T09:53:47;4.70;;;2.70;;
58366;SDS011;57745;42.524;12.052;2023-12-04T09:56:14;8.70;;;2.63;;
58366;SDS011;57745;42.524;12.052;2023-12-04T09:58:41;5.82;;;2.30;;
58366;SDS011;57745;42.524;12.052;2023-12-04T10:01:08;8.60;;;2.60;;
58366;SDS011;57745;42.524;12.052;2023-12-04T10:03:34;6.55;;;2.35;;
58366;SDS011;57745;42.524;12.052;2023-12-04T10:06:01;7.85;;;2.40;;
58366;SDS011;57745;42.524;12.052;2023-12-04T10:08:26;4.75;;;2.38;;
58366;SDS011;57745;42.524;12.052;2023-12-04T10:10:52;8.18;;;3.25;;
58366;SDS011;57745;42.524;12.052;2023-12-04T10:13:17;8.25;;;2.90;;
58366;SDS011;57745;42.524;12.052;2023-12-04T10:15:47;12.10;;;3.63;;
58366;SDS011;57745;42.524;12.052;2023-12-04T10:18:26;6.35;;;3.03;;
58366;SDS011;57745;42.524;12.052;2023-12-04T10:20:54;9.90;;;3.25;;
58366;SDS011;57745;42.524;12.052;2023-12-04T10:23:20;8.07;;;3.45;;
58366;SDS011;57745;42.524;12.052;2023-12-04T10:25:45;8.18;;;3.28;;
58366;SDS011;57745;42.524;12.052;2023-12-04T10:28:14;8.40;;;3.40;;
58366;SDS011;57745;42.524;12.052;2023-12-04T10:30:41;9.70;;;3.35;;
58366;SDS011;57745;42.524;12.052;2023-12-04T10:33:07;9.32;;;3.40;;
58366;SDS011;57745;42.524;12.052;2023-12-04T10:35:33;10.80;;;3.72;;
58366;SDS011;57745;42.524;12.052;2023-12-04T10:38:03;10.55;;;3.83;;
58366;SDS011;57745;42.524;12.052;2023-12-04T10:40:31;8.20;;;3.20;;
58366;SDS011;57745;42.524;12.052;2023-12-04T10:45:42;9.68;;;4.85;;
58366;SDS011;57745;42.524;12.052;2023-12-04T10:48:10;9.27;;;4.55;;
58366;SDS011;57745;42.524;12.052;2023-12-04T10:50:40;9.90;;;3.72;;
58366;SDS011;57745;42.524;12.052;2023-12-04T10:53:08;7.30;;;3.60;;
58366;SDS011;57745;42.524;12.052;2023-12-04T10:55:34;9.05;;;3.58;;
58366;SDS011;57745;42.524;12.052;2023-12-04T10:58:01;7.38;;;4.03;;
58366;SDS011;57745;42.524;12.052;2023-12-04T11:00:34;13.52;;;4.35;;
58366;SDS011;57745;42.524;12.052;2023-12-04T11:03:17;8.23;;;3.47;;
58366;SDS011;57745;42.524;12.052;2023-12-04T11:05:45;12.77;;;7.75;;
58366;SDS011;57745;42.524;12.052;2023-12-04T11:08:18;9.85;;;5.57;;
58366;SDS011;57745;42.524;12.052;2023-12-04T11:10:45;10.27;;;5.57;;
58366;SDS011;57745;42.524;12.052;2023-12-04T11:13:28;10.20;;;5.30;;
58366;SDS011;57745;42.524;12.052;2023-12-04T11:16:20;9.13;;;4.68;;
58366;SDS011;57745;42.524;12.052;2023-12-04T11:18:48;9.70;;;4.95;;
58366;SDS011;57745;42.524;12.052;2023-12-04T11:21:16;12.45;;;4.55;;
58366;SDS011;57745;42.524;12.052;2023-12-04T11:23:45;10.23;;;6.47;;
58366;SDS011;57745;42.524;12.052;2023-12-04T11:26:12;11.15;;;7.60;;
58366;SDS011;57745;42.524;12.052;2023-12-04T11:28:40;8.52;;;5.95;;
58366;SDS011;57745;42.524;12.052;2023-12-04T11:31:08;13.65;;;5.10;;
58366;SDS011;57745;42.524;12.052;2023-12-04T11:33:34;8.52;;;4.57;;
58366;SDS011;57745;42.524;12.052;2023-12-04T11:36:08;9.52;;;5.32;;
58366;SDS011;57745;42.524;12.052;2023-12-04T11:38:34;8.13;;;4.32;;
58366;SDS011;57745;42.524;12.052;2023-12-04T11:41:11;7.68;;;4.20;;
58366;SDS011;57745;42.524;12.052;2023-12-04T11:43:45;7.35;;;3.88;;
58366;SDS011;57745;42.524;12.052;2023-12-04T11:46:11;7.88;;;4.53;;
58366;SDS011;57745;42.524;12.052;2023-12-04T11:48:37;14.35;;;8.68;;
58366;SDS011;57745;42.524;12.052;2023-12-04T11:51:03;14.48;;;8.32;;
58366;SDS011;57745;42.524;12.052;2023-12-04T11:53:31;14.13;;;6.60;;
58366;SDS011;57745;42.524;12.052;2023-12-04T11:55:57;13.20;;;6.18;;
58366;SDS011;57745;42.524;12.052;2023-12-04T11:58:23;11.13;;;5.85;;
58366;SDS011;57745;42.524;12.052;2023-12-04T12:00:48;12.80;;;4.95;;
58366;SDS011;57745;42.524;12.052;2023-12-04T12:03:14;13.45;;;5.47;;
58366;SDS011;57745;42.524;12.052;2023-12-04T12:05:40;10.20;;;4.85;;
58366;SDS011;57745;42.524;12.052;2023-12-04T12:08:06;15.27;;;6.63;;
58366;SDS011;57745;42.524;12.052;2023-12-04T12:10:33;14.68;;;7.85;;
58366;SDS011;57745;42.524;12.052;2023-12-04T12:12:59;22.65;;;14.68;;
58366;SDS011;57745;42.524;12.052;2023-12-04T12:15:25;22.38;;;15.45;;
58366;SDS011;57745;42.524;12.052;2023-12-04T12:17:50;18.10;;;12.23;;
58366;SDS011;57745;42.524;12.052;2023-12-04T12:20:16;19.23;;;14.30;;
58366;SDS011;57745;42.524;12.052;2023-12-04T12:22:43;25.13;;;19.15;;
58366;SDS011;57745;42.524;12.052;2023-12-04T12:25:09;60.58;;;38.67;;
58366;SDS011;57745;42.524;12.052;2023-12-04T12:27:36;44.25;;;31.10;;
58366;SDS011;57745;42.524;12.052;2023-12-04T12:30:02;33.47;;;23.63;;
58366;SDS011;57745;42.524;12.052;2023-12-04T12:32:32;27.92;;;18.38;;
58366;SDS011;57745;42.524;12.052;2023-12-04T12:34:59;28.55;;;17.65;;
58366;SDS011;57745;42.524;12.052;2023-12-04T12:37:28;22.25;;;17.42;;
58366;SDS011;57745;42.524;12.052;2023-12-04T12:39:54;20.20;;;16.55;;
58366;SDS011;57745;42.524;12.052;2023-12-04T12:42:21;18.42;;;12.38;;
58366;SDS011;57745;42.524;12.052;2023-12-04T12:44:53;16.05;;;10.35;;
58366;SDS011;57745;42.524;12.052;2023-12-04T12:47:20;22.08;;;10.18;;
58366;SDS011;57745;42.524;12.052;2023-12-04T12:49:46;18.02;;;9.20;;
58366;SDS011;57745;42.524;12.052;2023-12-04T12:52:12;17.95;;;9.25;;
58366;SDS011;57745;42.524;12.052;2023-12-04T12:54:38;15.52;;;8.80;;
58366;SDS011;57745;42.524;12.052;2023-12-04T12:57:05;16.15;;;8.68;;
58366;SDS011;57745;42.524;12.052;2023-12-04T12:59:32;16.60;;;7.85;;
58366;SDS011;57745;42.524;12.052;2023-12-04T13:01:58;12.07;;;7.05;;
58366;SDS011;57745;42.524;12.052;2023-12-04T13:04:25;13.18;;;6.63;;
58366;SDS011;57745;42.524;12.052;2023-12-04T13:06:51;15.88;;;6.38;;
58366;SDS011;57745;42.524;12.052;2023-12-04T13:09:17;11.73;;;5.82;;
58366;SDS011;57745;42.524;12.052;2023-12-04T13:11:46;14.65;;;6.40;;
58366;SDS011;57745;42.524;12.052;2023-12-04T13:14:12;13.48;;;5.70;;
58366;SDS011;57745;42.524;12.052;2023-12-04T13:16:38;11.80;;;6.38;;
58366;SDS011;57745;42.524;12.052;2023-12-04T13:19:04;13.85;;;6.93;;
58366;SDS011;57745;42.524;12.052;2023-12-04T13:21:30;9.85;;;6.50;;
58366;SDS011;57745;42.524;12.052;2023-12-04T13:23:56;12.75;;;6.80;;
58366;SDS011;57745;42.524;12.052;2023-12-04T13:26:22;10.15;;;5.60;;
58366;SDS011;57745;42.524;12.052;2023-12-04T13:28:47;13.50;;;7.40;;
58366;SDS011;57745;42.524;12.052;2023-12-04T13:31:13;19.50;;;11.35;;
58366;SDS011;57745;42.524;12.052;2023-12-04T13:33:38;16.00;;;8.55;;
58366;SDS011;57745;42.524;12.052;2023-12-04T13:36:04;12.95;;;7.70;;
58366;SDS011;57745;42.524;12.052;2023-12-04T13:38:30;12.70;;;7.20;;
58366;SDS011;57745;42.524;12.052;2023-12-04T13:40:56;11.10;;;5.72;;
58366;SDS011;57745;42.524;12.052;2023-12-04T13:43:27;11.88;;;6.05;;
58366;SDS011;57745;42.524;12.052;2023-12-04T13:46:12;9.93;;;6.65;;
58366;SDS011;57745;42.524;12.052;2023-12-04T13:48:37;14.70;;;6.55;;
58366;SDS011;57745;42.524;12.052;2023-12-04T13:51:06;12.38;;;7.97;;
58366;SDS011;57745;42.524;12.052;2023-12-04T13:53:33;7.65;;;5.20;;
58366;SDS011;57745;42.524;12.052;2023-12-04T13:56:00;9.80;;;5.35;;
58366;SDS011;57745;42.524;12.052;2023-12-04T13:58:25;11.48;;;5.30;;
58366;SDS011;57745;42.524;12.052;2023-12-04T14:01:03;12.38;;;5.75;;
58366;SDS011;57745;42.524;12.052;2023-12-04T14:03:38;12.75;;;5.75;;
58366;SDS011;57745;42.524;12.052;2023-12-04T14:06:05;11.15;;;5.50;;
58366;SDS011;57745;42.524;12.052;2023-12-04T14:08:30;14.50;;;6.00;;
58366;SDS011;57745;42.524;12.052;2023-12-04T14:10:56;10.55;;;6.25;;
58366;SDS011;57745;42.524;12.052;2023-12-04T14:13:22;12.40;;;6.68;;
58366;SDS011;57745;42.524;12.052;2023-12-04T14:15:47;12.30;;;5.80;;
58366;SDS011;57745;42.524;12.052;2023-12-04T14:18:13;12.45;;;7.18;;
58366;SDS011;57745;42.524;12.052;2023-12-04T14:20:39;12.75;;;6.85;;
58366;SDS011;57745;42.524;12.052;2023-12-04T14:23:04;9.95;;;7.05;;
58366;SDS011;57745;42.524;12.052;2023-12-04T14:25:30;11.32;;;6.80;;
58366;SDS011;57745;42.524;12.052;2023-12-04T14:27:55;9.75;;;5.45;;